sensor_id;sensor_type;location;lat;lon;timestamp;pressure;altitude;pressure_sealevel;temperature;humidity
35507;BME280;36461;52.018;21.036;2023-02-04T00:00:29;99570.45;;;-0.26;97.24
35507;BME280;36461;52.018;21.036;2023-02-04T00:03:17;99579.13;;;-0.27;97.52
35507;BME280;36461;52.018;21.036;2023-02-04T00:05:45;99575.21;;;-0.28;98.02
35507;BME280;36461;52.018;21.036;2023-02-04T00:08:14;99576.39;;;-0.26;98.28
35507;BME280;36461;52.018;21.036;2023-02-04T00:10:42;99583.88;;;-0.26;97.97
35507;BME280;36461;52.018;21.036;2023-02-04T00:13:10;99590.86;;;-0.34;97.96
35507;BME280;36461;52.018;21.036;2023-02-04T00:15:38;99595.61;;;-0.46;97.64
35507;BME280;36461;52.018;21.036;2023-02-04T00:18:06;99594.94;;;-0.48;98.49
35507;BME280;36461;52.018;21.036;2023-02-04T00:20:36;99601.59;;;-0.51;98.53
35507;BME280;36461;52.018;21.036;2023-02-04T00:23:04;99608.55;;;-0.54;98.66
35507;BME280;36461;52.018;21.036;2023-02-04T00:25:32;99614.31;;;-0.56;98.92
35507;BME280;36461;52.018;21.036;2023-02-04T00:28:00;99624.67;;;-0.59;98.92
35507;BME280;36461;52.018;21.036;2023-02-04T00:30:28;99634.87;;;-0.61;99.05
35507;BME280;36461;52.018;21.036;2023-02-04T00:32:57;99643.37;;;-0.64;99.35
35507;BME280;36461;52.018;21.036;2023-02-04T00:35:25;99648.27;;;-0.68;99.90
35507;BME280;36461;52.018;21.036;2023-02-04T00:37:55;99661.86;;;-0.73;100.00
35507;BME280;36461;52.018;21.036;2023-02-04T00:40:25;99673.23;;;-0.77;100.00
35507;BME280;36461;52.018;21.036;2023-02-04T00:42:53;99680.02;;;-0.79;100.00
35507;BME280;36461;52.018;21.036;2023-02-04T00:45:21;99694.30;;;-0.84;100.00
35507;BME280;36461;52.018;21.036;2023-02-04T00:47:49;99699.37;;;-0.88;100.00
35507;BME280;36461;52.018;21.036;2023-02-04T00:50:17;99702.25;;;-0.89;100.00
35507;BME280;36461;52.018;21.036;2023-02-04T00:52:46;99707.01;;;-0.90;100.00
35507;BME280;36461;52.018;21.036;2023-02-04T00:55:14;99717.54;;;-0.90;100.00
35507;BME280;36461;52.018;21.036;2023-02-04T00:57:45;99720.77;;;-0.89;100.00
35507;BME280;36461;52.018;21.036;2023-02-04T01:00:16;99725.86;;;-0.89;100.00
35507;BME280;36461;52.018;21.036;2023-02-04T01:02:45;99729.95;;;-0.90;100.00
35507;BME280;36461;52.018;21.036;2023-02-04T01:05:13;99739.95;;;-0.90;100.00
35507;BME280;36461;52.018;21.036;2023-02-04T01:07:41;99743.52;;;-0.94;100.00
35507;BME280;36461;52.018;21.036;2023-02-04T01:10:10;99756.59;;;-0.95;100.00
35507;BME280;36461;52.018;21.036;2023-02-04T01:12:39;99764.22;;;-0.96;100.00
35507;BME280;36461;52.018;21.036;2023-02-04T01:15:08;99767.80;;;-0.95;100.00
35507;BME280;36461;52.018;21.036;2023-02-04T01:17:36;99769.66;;;-0.95;100.00
35507;BME280;36461;52.018;21.036;2023-02-04T01:20:05;99779.34;;;-0.98;100.00
35507;BME280;36461;52.018;21.036;2023-02-04T01:22:33;99787.98;;;-0.97;100.00
35507;BME280;36461;52.018;21.036;2023-02-04T01:25:02;99796.48;;;-1.00;100.00
35507;BME280;36461;52.018;21.036;2023-02-04T01:27:40;99804.45;;;-1.02;100.00
35507;BME280;36461;52.018;21.036;2023-02-04T01:30:10;99811.77;;;-1.01;100.00
35507;BME280;36461;52.018;21.036;2023-02-04T01:32:38;99819.08;;;-0.99;100.00
35507;BME280;36461;52.018;21.036;2023-02-04T01:35:08;99826.05;;;-0.98;100.00
35507;BME280;36461;52.018;21.036;2023-02-04T01:37:36;99843.02;;;-0.97;100.00
35507;BME280;36461;52.018;21.036;2023-02-04T01:40:05;99852.19;;;-0.99;100.00
35507;BME280;36461;52.018;21.036;2023-02-04T01:42:34;99861.33;;;-1.03;100.00
35507;BME280;36461;52.018;21.036;2023-02-04T01:45:03;99867.61;;;-1.04;100.00
35507;BME280;36461;52.018;21.036;2023-02-04T01:47:34;99875.25;;;-1.05;100.00
35507;BME280;36461;52.018;21.036;2023-02-04T01:50:06;99885.96;;;-1.03;100.00
35507;BME280;36461;52.018;21.036;2023-02-04T01:52:37;99897.34;;;-1.03;100.00
35507;BME280;36461;52.018;21.036;2023-02-04T01:55:18;99905.85;;;-1.01;100.00
35507;BME280;36461;52.018;21.036;2023-02-04T01:57:48;99919.09;;;-1.02;100.00
35507;BME280;36461;52.018;21.036;2023-02-04T02:00:24;99929.80;;;-1.01;100.00
35507;BME280;36461;52.018;21.036;2023-02-04T02:02:54;99941.34;;;-1.02;100.00
35507;BME280;36461;52.018;21.036;2023-02-04T02:05:27;99944.06;;;-1.02;100.00
35507;BME280;36461;52.018;21.036;2023-02-04T02:07:59;99952.39;;;-1.02;100.00
35507;BME280;36461;52.018;21.036;2023-02-04T02:10:29;99963.09;;;-1.01;100.00
35507;BME280;36461;52.018;21.036;2023-02-04T02:12:58;99969.70;;;-1.01;100.00
35507;BME280;36461;52.018;21.036;2023-02-04T02:15:26;99970.89;;;-1.02;100.00
35507;BME280;36461;52.018;21.036;2023-02-04T02:17:55;99977.02;;;-1.01;100.00
35507;BME280;36461;52.018;21.036;2023-02-04T02:20:24;99987.91;;;-0.99;100.00
35507;BME280;36461;52.018;21.036;2023-02-04T02:25:43;100006.60;;;-0.97;100.00
35507;BME280;36461;52.018;21.036;2023-02-04T02:28:14;100021.71;;;-0.98;100.00
35507;BME280;36461;52.018;21.036;2023-02-04T02:30:44;100035.14;;;-0.97;100.00
35507;BME280;36461;52.018;21.036;2023-02-04T02:33:13;100044.64;;;-0.97;100.00
35507;BME280;36461;52.018;21.036;2023-02-04T02:35:45;100057.89;;;-0.97;100.00
35507;BME280;36461;52.018;21.036;2023-02-04T02:38:17;100066.73;;;-0.98;100.00
35507;BME280;36461;52.018;21.036;2023-02-04T02:40:47;100080.13;;;-0.99;100.00
35507;BME280;36461;52.018;21.036;2023-02-04T02:43:19;100087.57;;;-1.01;100.00
35507;BME280;36461;52.018;21.036;2023-02-04T02:45:48;100093.52;;;-1.01;100.00
35507;BME280;36461;52.018;21.036;2023-02-04T02:48:17;100103.88;;;-1.01;100.00
35507;BME280;36461;52.018;21.036;2023-02-04T02:50:47;100118.66;;;-1.01;100.00
35507;BME280;36461;52.018;21.036;2023-02-04T02:53:18;100129.14;;;-1.06;100.00
35507;BME280;36461;52.018;21.036;2023-02-04T02:55:48;100139.31;;;-1.07;100.00
35507;BME280;36461;52.018;21.036;2023-02-04T02:58:26;100144.07;;;-1.06;100.00
35507;BME280;36461;52.018;21.036;2023-02-04T03:00:56;100160.53;;;-1.08;100.00
35507;BME280;36461;52.018;21.036;2023-02-04T03:03:31;100168.00;;;-1.09;100.00
35507;BME280;36461;52.018;21.036;2023-02-04T03:06:08;100177.86;;;-1.09;100.00
35507;BME280;36461;52.018;21.036;2023-02-04T03:08:38;100188.88;;;-1.09;100.00
35507;BME280;36461;52.018;21.036;2023-02-04T03:11:06;100197.19;;;-1.10;100.00
35507;BME280;36461;52.018;21.036;2023-02-04T03:13:34;100201.77;;;-1.10;100.00
35507;BME280;36461;52.018;21.036;2023-02-04T03:16:04;100207.55;;;-1.10;100.00
35507;BME280;36461;52.018;21.036;2023-02-04T03:18:35;100212.98;;;-1.10;100.00
35507;BME280;36461;52.018;21.036;2023-02-04T03:21:04;100224.54;;;-1.09;100.00
35507;BME280;36461;52.018;21.036;2023-02-04T03:23:34;100238.30;;;-1.09;100.00
35507;BME280;36461;52.018;21.036;2023-02-04T03:26:04;100252.21;;;-1.11;100.00
35507;BME280;36461;52.018;21.036;2023-02-04T03:28:33;100261.56;;;-1.11;100.00
35507;BME280;36461;52.018;21.036;2023-02-04T03:31:01;100273.30;;;-1.09;100.00
35507;BME280;36461;52.018;21.036;2023-02-04T03:33:30;100283.16;;;-1.08;100.00
35507;BME280;36461;52.018;21.036;2023-02-04T03:35:58;100288.59;;;-1.09;100.00
35507;BME280;36461;52.018;21.036;2023-02-04T03:38:26;100290.11;;;-1.08;100.00
35507;BME280;36461;52.018;21.036;2023-02-04T03:40:54;100296.57;;;-1.09;100.00
35507;BME280;36461;52.018;21.036;2023-02-04T03:43:22;100306.73;;;-1.10;100.00
35507;BME280;36461;52.018;21.036;2023-02-04T03:45:51;100317.71;;;-1.14;100.00
35507;BME280;36461;52.018;21.036;2023-02-04T03:48:19;100326.55;;;-1.14;100.00
35507;BME280;36461;52.018;21.036;2023-02-04T03:50:47;100340.80;;;-1.13;100.00
35507;BME280;36461;52.018;21.036;2023-02-04T03:53:15;100348.83;;;-1.12;100.00
35507;BME280;36461;52.018;21.036;2023-02-04T03:55:43;100358.17;;;-1.11;100.00
35507;BME280;36461;52.018;21.036;2023-02-04T03:58:11;100362.75;;;-1.12;100.00
35507;BME280;36461;52.018;21.036;2023-02-04T04:00:42;100371.40;;;-1.12;100.00
35507;BME280;36461;52.018;21.036;2023-02-04T04:03:10;100381.95;;;-1.12;100.00
35507;BME280;36461;52.018;21.036;2023-02-04T04:05:38;100398.10;;;-1.10;100.00
35507;BME280;36461;52.018;21.036;2023-02-04T04:08:06;100405.09;;;-1.09;100.00
35507;BME280;36461;52.018;21.036;2023-02-04T04:10:34;100410.02;;;-1.08;100.00
35507;BME280;36461;52.018;21.036;2023-02-04T04:13:02;100415.08;;;-1.11;100.00
35507;BME280;36461;52.018;21.036;2023-02-04T04:15:30;100426.54;;;-1.16;100.00
35507;BME280;36461;52.018;21.036;2023-02-04T04:17:59;100430.58;;;-1.19;100.00
35507;BME280;36461;52.018;21.036;2023-02-04T04:20:27;100439.81;;;-1.24;100.00
35507;BME280;36461;52.018;21.036;2023-02-04T04:22:56;100446.19;;;-1.29;100.00
35507;BME280;36461;52.018;21.036;2023-02-04T04:25:24;100456.62;;;-1.35;100.00
35507;BME280;36461;52.018;21.036;2023-02-04T04:27:53;100466.36;;;-1.41;100.00
35507;BME280;36461;52.018;21.036;2023-02-04T04:30:21;100474.73;;;-1.47;100.00
35507;BME280;36461;52.018;21.036;2023-02-04T04:32:49;100482.28;;;-1.52;100.00
35507;BME280;36461;52.018;21.036;2023-02-04T04:35:17;100489.27;;;-1.59;100.00
35507;BME280;36461;52.018;21.036;2023-02-04T04:37:45;100499.70;;;-1.65;100.00
35507;BME280;36461;52.018;21.036;2023-02-04T04:40:14;100506.08;;;-1.68;100.00
35507;BME280;36461;52.018;21.036;2023-02-04T04:42:42;100514.67;;;-1.71;100.00
35507;BME280;36461;52.018;21.036;2023-02-04T04:45:11;100526.11;;;-1.76;100.00
35507;BME280;36461;52.018;21.036;2023-02-04T04:47:41;100537.89;;;-1.81;100.00
35507;BME280;36461;52.018;21.036;2023-02-04T04:50:09;100538.15;;;-1.84;100.00
35507;BME280;36461;52.018;21.036;2023-02-04T04:52:38;100546.87;;;-1.89;100.00
35507;BME280;36461;52.018;21.036;2023-02-04T04:55:07;100563.90;;;-1.94;100.00
35507;BME280;36461;52.018;21.036;2023-02-04T04:57:35;100570.41;;;-1.99;100.00
35507;BME280;36461;52.018;21.036;2023-02-04T05:00:05;100581.82;;;-1.97;100.00
35507;BME280;36461;52.018;21.036;2023-02-04T05:02:33;100594.11;;;-1.93;100.00
35507;BME280;36461;52.018;21.036;2023-02-04T05:05:01;100590.15;;;-1.89;100.00
35507;BME280;36461;52.018;21.036;2023-02-04T05:07:29;100595.94;;;-1.87;100.00
35507;BME280;36461;52.018;21.036;2023-02-04T05:09:57;100603.46;;;-1.84;100.00
35507;BME280;36461;52.018;21.036;2023-02-04T05:12:25;100604.40;;;-1.80;100.00
35507;BME280;36461;52.018;21.036;2023-02-04T05:14:54;100619.91;;;-1.77;100.00
35507;BME280;36461;52.018;21.036;2023-02-04T05:17:22;100627.73;;;-1.76;100.00
35507;BME280;36461;52.018;21.036;2023-02-04T05:19:50;100639.32;;;-1.74;100.00
35507;BME280;36461;52.018;21.036;2023-02-04T05:22:18;100650.06;;;-1.72;100.00
35507;BME280;36461;52.018;21.036;2023-02-04T05:24:46;100656.90;;;-1.69;100.00
35507;BME280;36461;52.018;21.036;2023-02-04T05:27:14;100659.64;;;-1.68;100.00
35507;BME280;36461;52.018;21.036;2023-02-04T05:29:42;100672.58;;;-1.65;100.00
35507;BME280;36461;52.018;21.036;2023-02-04T05:32:10;100677.71;;;-1.65;100.00
35507;BME280;36461;52.018;21.036;2023-02-04T05:34:38;100683.53;;;-1.62;100.00
35507;BME280;36461;52.018;21.036;2023-02-04T05:37:06;100693.74;;;-1.61;100.00
35507;BME280;36461;52.018;21.036;2023-02-04T05:39:34;100698.17;;;-1.60;100.00
35507;BME280;36461;52.018;21.036;2023-02-04T05:42:02;100700.07;;;-1.59;100.00
35507;BME280;36461;52.018;21.036;2023-02-04T05:44:30;100703.83;;;-1.58;100.00
35507;BME280;36461;52.018;21.036;2023-02-04T05:46:59;100707.09;;;-1.56;100.00
35507;BME280;36461;52.018;21.036;2023-02-04T05:49:27;100716.83;;;-1.53;100.00
35507;BME280;36461;52.018;21.036;2023-02-04T05:51:55;100722.58;;;-1.54;100.00
35507;BME280;36461;52.018;21.036;2023-02-04T05:54:23;100733.45;;;-1.53;100.00
35507;BME280;36461;52.018;21.036;2023-02-04T05:56:51;100752.12;;;-1.54;100.00
35507;BME280;36461;52.018;21.036;2023-02-04T05:59:19;100762.02;;;-1.51;100.00
35507;BME280;36461;52.018;21.036;2023-02-04T06:01:47;100773.75;;;-1.50;100.00
35507;BME280;36461;52.018;21.036;2023-02-04T06:04:16;100782.50;;;-1.46;100.00
35507;BME280;36461;52.018;21.036;2023-02-04T06:06:44;100792.02;;;-1.46;100.00
35507;BME280;36461;52.018;21.036;2023-02-04T06:09:12;100795.75;;;-1.45;100.00
35507;BME280;36461;52.018;21.036;2023-02-04T06:11:40;100807.65;;;-1.45;100.00
35507;BME280;36461;52.018;21.036;2023-02-04T06:14:08;100817.00;;;-1.44;100.00
35507;BME280;36461;52.018;21.036;2023-02-04T06:16:38;100822.27;;;-1.44;100.00
35507;BME280;36461;52.018;21.036;2023-02-04T06:19:06;100831.48;;;-1.43;100.00
35507;BME280;36461;52.018;21.036;2023-02-04T06:21:34;100833.65;;;-1.44;100.00
35507;BME280;36461;52.018;21.036;2023-02-04T06:24:02;100844.02;;;-1.43;100.00
35507;BME280;36461;52.018;21.036;2023-02-04T06:26:32;100856.06;;;-1.44;100.00
35507;BME280;36461;52.018;21.036;2023-02-04T06:29:00;100861.39;;;-1.41;100.00
35507;BME280;36461;52.018;21.036;2023-02-04T06:31:28;100867.17;;;-1.40;100.00
35507;BME280;36461;52.018;21.036;2023-02-04T06:33:57;100875.83;;;-1.41;100.00
35507;BME280;36461;52.018;21.036;2023-02-04T06:36:25;100887.88;;;-1.41;100.00
35507;BME280;36461;52.018;21.036;2023-02-04T06:38:53;100890.07;;;-1.42;100.00
35507;BME280;36461;52.018;21.036;2023-02-04T06:41:21;100895.69;;;-1.41;100.00
35507;BME280;36461;52.018;21.036;2023-02-04T06:43:49;100901.98;;;-1.40;100.00
35507;BME280;36461;52.018;21.036;2023-02-04T06:46:17;100915.92;;;-1.40;100.00
35507;BME280;36461;52.018;21.036;2023-02-04T06:48:46;100917.53;;;-1.37;100.00
35507;BME280;36461;52.018;21.036;2023-02-04T06:51:14;100917.61;;;-1.33;100.00
35507;BME280;36461;52.018;21.036;2023-02-04T06:53:59;100923.13;;;-1.30;100.00
35507;BME280;36461;52.018;21.036;2023-02-04T06:56:27;100934.79;;;-1.32;100.00
35507;BME280;36461;52.018;21.036;2023-02-04T06:58:56;100944.61;;;-1.33;100.00
35507;BME280;36461;52.018;21.036;2023-02-04T07:01:24;100950.14;;;-1.36;99.79
35507;BME280;36461;52.018;21.036;2023-02-04T07:03:52;100957.42;;;-1.37;99.82
35507;BME280;36461;52.018;21.036;2023-02-04T07:06:24;100966.77;;;-1.37;99.81
35507;BME280;36461;52.018;21.036;2023-02-04T07:08:54;100981.36;;;-1.37;99.70
35507;BME280;36461;52.018;21.036;2023-02-04T07:11:22;100994.42;;;-1.38;99.30
35507;BME280;36461;52.018;21.036;2023-02-04T07:13:50;100995.61;;;-1.38;98.90
35507;BME280;36461;52.018;21.036;2023-02-04T07:16:18;101003.52;;;-1.33;98.98
35507;BME280;36461;52.018;21.036;2023-02-04T07:18:46;101012.80;;;-1.29;98.79
35507;BME280;36461;52.018;21.036;2023-02-04T07:21:14;101025.40;;;-1.28;98.39
35507;BME280;36461;52.018;21.036;2023-02-04T07:23:42;101030.59;;;-1.30;97.88
35507;BME280;36461;52.018;21.036;2023-02-04T07:26:10;101031.03;;;-1.33;97.85
35507;BME280;36461;52.018;21.036;2023-02-04T07:28:38;101039.98;;;-1.35;97.70
35507;BME280;36461;52.018;21.036;2023-02-04T07:31:07;101045.10;;;-1.41;96.94
35507;BME280;36461;52.018;21.036;2023-02-04T07:33:36;101050.02;;;-1.47;96.52
35507;BME280;36461;52.018;21.036;2023-02-04T07:36:04;101056.47;;;-1.53;96.17
35507;BME280;36461;52.018;21.036;2023-02-04T07:38:32;101061.39;;;-1.54;96.38
35507;BME280;36461;52.018;21.036;2023-02-04T07:41:00;101067.34;;;-1.47;96.65
35507;BME280;36461;52.018;21.036;2023-02-04T07:43:28;101074.66;;;-1.40;96.34
35507;BME280;36461;52.018;21.036;2023-02-04T07:45:56;101081.30;;;-1.33;96.17
35507;BME280;36461;52.018;21.036;2023-02-04T07:48:24;101082.31;;;-1.27;96.41
35507;BME280;36461;52.018;21.036;2023-02-04T07:50:52;101098.21;;;-1.23;95.78
35507;BME280;36461;52.018;21.036;2023-02-04T07:53:20;101104.77;;;-1.19;96.10
35507;BME280;36461;52.018;21.036;2023-02-04T07:55:48;101101.20;;;-1.19;96.13
35507;BME280;36461;52.018;21.036;2023-02-04T07:58:16;101098.36;;;-1.30;95.13
35507;BME280;36461;52.018;21.036;2023-02-04T08:00:44;101106.37;;;-1.35;94.53
35507;BME280;36461;52.018;21.036;2023-02-04T08:03:12;101104.26;;;-1.44;94.02
35507;BME280;36461;52.018;21.036;2023-02-04T08:05:40;101103.85;;;-1.52;93.79
35507;BME280;36461;52.018;21.036;2023-02-04T08:08:08;101107.59;;;-1.58;94.05
35507;BME280;36461;52.018;21.036;2023-02-04T08:10:36;101111.99;;;-1.58;94.40
35507;BME280;36461;52.018;21.036;2023-02-04T08:13:04;101117.23;;;-1.59;94.37
35507;BME280;36461;52.018;21.036;2023-02-04T08:15:33;101118.83;;;-1.63;94.02
35507;BME280;36461;52.018;21.036;2023-02-04T08:18:00;101121.13;;;-1.65;94.21
35507;BME280;36461;52.018;21.036;2023-02-04T08:20:29;101125.30;;;-1.68;93.86
35507;BME280;36461;52.018;21.036;2023-02-04T08:22:58;101126.28;;;-1.69;94.11
35507;BME280;36461;52.018;21.036;2023-02-04T08:25:26;101130.36;;;-1.69;93.86
35507;BME280;36461;52.018;21.036;2023-02-04T08:27:55;101134.23;;;-1.70;94.03
35507;BME280;36461;52.018;21.036;2023-02-04T08:30:23;101137.11;;;-1.70;94.11
35507;BME280;36461;52.018;21.036;2023-02-04T08:32:51;101146.92;;;-1.71;93.82
35507;BME280;36461;52.018;21.036;2023-02-04T08:35:19;101153.02;;;-1.77;93.17
35507;BME280;36461;52.018;21.036;2023-02-04T08:37:47;101155.01;;;-1.79;93.10
35507;BME280;36461;52.018;21.036;2023-02-04T08:40:15;101164.50;;;-1.79;92.92
35507;BME280;36461;52.018;21.036;2023-02-04T08:42:43;101172.41;;;-1.81;92.87
35507;BME280;36461;52.018;21.036;2023-02-04T08:54:21;101189.54;;;-1.76;92.51
35507;BME280;36461;52.018;21.036;2023-02-04T09:05:59;101212.36;;;-1.79;90.87
35507;BME280;36461;52.018;21.036;2023-02-04T09:08:27;101218.03;;;-1.76;91.23
35507;BME280;36461;52.018;21.036;2023-02-04T09:10:55;101222.59;;;-1.72;91.32
35507;BME280;36461;52.018;21.036;2023-02-04T09:13:23;101225.30;;;-1.66;91.41
35507;BME280;36461;52.018;21.036;2023-02-04T09:15:51;101228.20;;;-1.60;91.50
35507;BME280;36461;52.018;21.036;2023-02-04T09:18:20;101233.70;;;-1.58;91.09
35507;BME280;36461;52.018;21.036;2023-02-04T09:20:49;101235.48;;;-1.56;90.92
35507;BME280;36461;52.018;21.036;2023-02-04T09:23:18;101243.57;;;-1.52;90.95
35507;BME280;36461;52.018;21.036;2023-02-04T09:25:46;101244.66;;;-1.49;90.49
35507;BME280;36461;52.018;21.036;2023-02-04T09:28:14;101247.44;;;-1.47;90.06
35507;BME280;36461;52.018;21.036;2023-02-04T09:30:45;101242.36;;;-1.53;90.20
35507;BME280;36461;52.018;21.036;2023-02-04T09:33:15;101240.02;;;-1.57;90.34
35507;BME280;36461;52.018;21.036;2023-02-04T09:35:46;101241.27;;;-1.61;89.60
35507;BME280;36461;52.018;21.036;2023-02-04T09:38:14;101236.65;;;-1.61;89.27
35507;BME280;36461;52.018;21.036;2023-02-04T09:40:46;101240.24;;;-1.61;88.19
35507;BME280;36461;52.018;21.036;2023-02-04T09:43:20;101240.98;;;-1.59;88.09
35507;BME280;36461;52.018;21.036;2023-02-04T09:45:49;101241.12;;;-1.55;88.61
35507;BME280;36461;52.018;21.036;2023-02-04T09:48:17;101245.85;;;-1.49;88.40
35507;BME280;36461;52.018;21.036;2023-02-04T09:50:47;101242.04;;;-1.47;88.38
35507;BME280;36461;52.018;21.036;2023-02-04T09:58:13;101259.35;;;-1.41;87.36
35507;BME280;36461;52.018;21.036;2023-02-04T10:00:45;101267.14;;;-1.36;87.19
35507;BME280;36461;52.018;21.036;2023-02-04T10:07:46;101268.52;;;-1.30;85.99
35507;BME280;36461;52.018;21.036;2023-02-04T10:10:20;101271.38;;;-1.31;85.10
35507;BME280;36461;52.018;21.036;2023-02-04T10:12:50;101276.25;;;-1.32;84.47
35507;BME280;36461;52.018;21.036;2023-02-04T10:15:19;101274.98;;;-1.36;83.83
35507;BME280;36461;52.018;21.036;2023-02-04T10:17:51;101279.61;;;-1.34;84.50
35507;BME280;36461;52.018;21.036;2023-02-04T10:20:22;101284.63;;;-1.31;84.02
35507;BME280;36461;52.018;21.036;2023-02-04T10:22:53;101289.77;;;-1.29;83.59
35507;BME280;36461;52.018;21.036;2023-02-04T10:25:23;101290.30;;;-1.29;83.44
35507;BME280;36461;52.018;21.036;2023-02-04T10:27:59;101290.70;;;-1.27;83.17
35507;BME280;36461;52.018;21.036;2023-02-04T10:30:30;101292.19;;;-1.23;83.54
35507;BME280;36461;52.018;21.036;2023-02-04T10:33:12;101292.42;;;-1.21;83.33
35507;BME280;36461;52.018;21.036;2023-02-04T10:35:48;101286.97;;;-1.15;83.34
35507;BME280;36461;52.018;21.036;2023-02-04T10:38:17;101290.48;;;-1.06;83.47
35507;BME280;36461;52.018;21.036;2023-02-04T10:40:45;101289.86;;;-1.03;83.02
35507;BME280;36461;52.018;21.036;2023-02-04T10:43:20;101308.53;;;-1.04;84.71
35507;BME280;36461;52.018;21.036;2023-02-04T10:46:01;101311.58;;;-1.10;85.90
35507;BME280;36461;52.018;21.036;2023-02-04T10:48:29;101308.81;;;-1.00;86.95
35507;BME280;36461;52.018;21.036;2023-02-04T10:51:09;101305.39;;;-0.72;87.87
35507;BME280;36461;52.018;21.036;2023-02-04T10:53:39;101308.92;;;-0.50;86.75
35507;BME280;36461;52.018;21.036;2023-02-04T10:56:26;101307.90;;;-0.30;85.44
35507;BME280;36461;52.018;21.036;2023-02-04T10:58:54;101317.87;;;-0.21;85.31
35507;BME280;36461;52.018;21.036;2023-02-04T11:01:25;101319.84;;;-0.10;84.02
35507;BME280;36461;52.018;21.036;2023-02-04T11:03:55;101316.16;;;-0.08;83.72
35507;BME280;36461;52.018;21.036;2023-02-04T11:06:23;101331.56;;;-0.18;84.56
35507;BME280;36461;52.018;21.036;2023-02-04T11:08:52;101322.48;;;-0.32;87.13
35507;BME280;36461;52.018;21.036;2023-02-04T11:11:24;101332.87;;;-0.38;85.37
35507;BME280;36461;52.018;21.036;2023-02-04T11:30:20;101329.84;;;-0.49;84.73
35507;BME280;36461;52.018;21.036;2023-02-04T11:33:22;101329.52;;;-0.42;84.87
35507;BME280;36461;52.018;21.036;2023-02-04T11:36:01;101333.19;;;-0.26;85.25
35507;BME280;36461;52.018;21.036;2023-02-04T11:38:32;101336.61;;;-0.26;83.73
35507;BME280;36461;52.018;21.036;2023-02-04T11:41:00;101338.71;;;-0.24;83.78
35507;BME280;36461;52.018;21.036;2023-02-04T11:43:32;101347.58;;;-0.23;83.29
35507;BME280;36461;52.018;21.036;2023-02-04T11:46:12;101341.69;;;-0.27;82.76
35507;BME280;36461;52.018;21.036;2023-02-04T11:48:42;101340.20;;;-0.25;82.96
35507;BME280;36461;52.018;21.036;2023-02-04T11:51:13;101345.91;;;-0.22;82.81
35507;BME280;36461;52.018;21.036;2023-02-04T11:53:42;101342.08;;;-0.19;82.75
35507;BME280;36461;52.018;21.036;2023-02-04T11:56:17;101345.05;;;-0.23;82.12
35507;BME280;36461;52.018;21.036;2023-02-04T11:58:46;101341.73;;;-0.32;82.25
35507;BME280;36461;52.018;21.036;2023-02-04T12:01:18;101352.31;;;-0.30;81.70
35507;BME280;36461;52.018;21.036;2023-02-04T12:03:59;101348.08;;;-0.36;81.24
35507;BME280;36461;52.018;21.036;2023-02-04T12:06:30;101358.98;;;-0.35;80.94
35507;BME280;36461;52.018;21.036;2023-02-04T12:11:53;101356.61;;;-0.46;81.16
35507;BME280;36461;52.018;21.036;2023-02-04T12:14:27;101362.69;;;-0.48;80.87
35507;BME280;36461;52.018;21.036;2023-02-04T12:16:56;101361.95;;;-0.44;81.10
35507;BME280;36461;52.018;21.036;2023-02-04T12:19:24;101366.13;;;-0.41;80.76
35507;BME280;36461;52.018;21.036;2023-02-04T12:21:54;101366.70;;;-0.39;81.13
35507;BME280;36461;52.018;21.036;2023-02-04T12:24:22;101371.42;;;-0.41;80.66
35507;BME280;36461;52.018;21.036;2023-02-04T12:26:50;101372.53;;;-0.43;80.98
35507;BME280;36461;52.018;21.036;2023-02-04T12:29:19;101366.95;;;-0.42;81.16
35507;BME280;36461;52.018;21.036;2023-02-04T12:31:47;101369.73;;;-0.39;81.26
35507;BME280;36461;52.018;21.036;2023-02-04T12:34:15;101373.11;;;-0.34;81.58
35507;BME280;36461;52.018;21.036;2023-02-04T12:36:44;101378.42;;;-0.27;80.72
35507;BME280;36461;52.018;21.036;2023-02-04T12:39:12;101377.55;;;-0.22;80.44
35507;BME280;36461;52.018;21.036;2023-02-04T12:41:40;101380.15;;;-0.20;80.26
35507;BME280;36461;52.018;21.036;2023-02-04T12:44:08;101376.91;;;-0.21;80.24
35507;BME280;36461;52.018;21.036;2023-02-04T12:46:36;101375.67;;;-0.23;80.11
35507;BME280;36461;52.018;21.036;2023-02-04T12:49:04;101379.65;;;-0.20;80.16
35507;BME280;36461;52.018;21.036;2023-02-04T12:51:34;101385.12;;;-0.19;79.81
35507;BME280;36461;52.018;21.036;2023-02-04T12:54:02;101382.58;;;-0.19;79.90
35507;BME280;36461;52.018;21.036;2023-02-04T12:56:30;101393.35;;;-0.23;79.48
35507;BME280;36461;52.018;21.036;2023-02-04T12:59:00;101391.30;;;-0.23;79.52
35507;BME280;36461;52.018;21.036;2023-02-04T13:01:28;101383.21;;;-0.20;79.84
35507;BME280;36461;52.018;21.036;2023-02-04T13:03:57;101392.70;;;-0.16;79.79
35507;BME280;36461;52.018;21.036;2023-02-04T13:06:25;101399.04;;;-0.20;79.70
35507;BME280;36461;52.018;21.036;2023-02-04T13:08:53;101401.14;;;-0.30;88.66
35507;BME280;36461;52.018;21.036;2023-02-04T13:11:21;101403.95;;;-0.33;90.83
35507;BME280;36461;52.018;21.036;2023-02-04T13:13:50;101404.02;;;-0.30;81.46
35507;BME280;36461;52.018;21.036;2023-02-04T13:16:18;101409.42;;;-0.25;80.46
35507;BME280;36461;52.018;21.036;2023-02-04T13:18:49;101408.83;;;-0.23;80.37
35507;BME280;36461;52.018;21.036;2023-02-04T13:21:18;101414.23;;;-0.19;80.83
35507;BME280;36461;52.018;21.036;2023-02-04T13:23:47;101415.43;;;-0.18;80.29
35507;BME280;36461;52.018;21.036;2023-02-04T13:26:15;101418.27;;;-0.20;80.03
35507;BME280;36461;52.018;21.036;2023-02-04T13:28:45;101416.34;;;-0.22;79.92
35507;BME280;36461;52.018;21.036;2023-02-04T13:31:13;101415.86;;;-0.26;80.31
35507;BME280;36461;52.018;21.036;2023-02-04T13:33:41;101418.54;;;-0.34;79.96
35507;BME280;36461;52.018;21.036;2023-02-04T13:36:10;101422.29;;;-0.45;79.82
35507;BME280;36461;52.018;21.036;2023-02-04T13:38:38;101423.71;;;-0.55;80.21